Time;durP1;ratioP1;P1;durP2;ratioP2;P2;SDS_P1;SDS_P2;PMS_P1;PMS_P2;Temp;Humidity;BMP_temperature;BMP_pressure;BME280_temperature;BME280_humidity;BME280_pressure;Samples;Min_cycle;Max_cycle;Signal;HPM_P1;HPM_P2
2021/01/10 00:01:16;;;;;;;;;;;;;;;0.86;100.00;101614.22;5113389;28;19930;-69
2021/01/10 00:03:41;;;;;;;;;;;;;;;0.89;100.00;101614.13;5113634;28;19969;-68
2021/01/10 00:06:07;;;;;;;;;;;;;;;0.90;100.00;101613.22;5112042;28;19923;-69
2021/01/10 00:08:34;;;;;;;;;;;;;;;0.90;100.00;101611.41;5113508;28;20015;-69
2021/01/10 00:11:00;;;;;;;;;;;;;;;0.89;100.00;101614.13;5113332;28;19962;-68
2021/01/10 00:13:26;;;;;;;;;;;;;;;0.94;100.00;101614.88;5113045;28;20393;-69
2021/01/10 00:15:52;;;;;;;;;;;;;;;0.93;100.00;101615.78;5113102;28;19931;-69
2021/01/10 00:18:17;;;;;;;;;;;;;;;0.96;100.00;101615.69;5113126;28;19928;-70
2021/01/10 00:20:43;;;;;;;;;;;;;;;1.00;100.00;101622.72;5113260;28;20591;-70
2021/01/10 00:23:09;;;;;;;;;;;;;;;0.96;100.00;101616.59;5113093;28;19923;-69
2021/01/10 00:25:36;;;;;;;;;;;;;;;0.99;100.00;101627.19;5112980;28;19924;-69
2021/01/10 00:28:02;;;;;;;;;;;;;;;0.98;100.00;101622.75;5112775;28;19979;-69
2021/01/10 00:30:27;;;;;;;;;;;;;;;0.97;100.00;101621.00;5112955;28;20281;-69
2021/01/10 00:32:54;;;;;;;;;;;;;;;0.97;100.00;101628.16;5112712;28;19924;-70
2021/01/10 00:35:21;;;;;;;;;;;;;;;0.94;100.00;101623.78;5112812;28;19924;-70
2021/01/10 00:37:47;;;;;;;;;;;;;;;0.94;100.00;101628.25;5112693;28;19955;-69
2021/01/10 00:40:14;;;;;;;;;;;;;;;0.95;100.00;101630.88;5112812;28;19959;-69
2021/01/10 00:42:41;;;;;;;;;;;;;;;0.99;100.00;101631.69;5112775;28;20327;-70
2021/01/10 00:45:07;;;;;;;;;;;;;;;1.00;100.00;101631.63;5112650;28;20018;-70
2021/01/10 00:47:33;;;;;;;;;;;;;;;1.00;100.00;101630.75;5105457;28;20003;-70
2021/01/10 00:50:00;;;;;;;;;;;;;;;1.01;100.00;101635.19;5111543;28;21580;-70
2021/01/10 00:52:28;;;;;;;;;;;;;;;0.93;100.00;101632.69;5112497;28;19963;-70
2021/01/10 00:54:53;;;;;;;;;;;;;;;0.95;100.00;101627.31;5111128;28;19924;-69
2021/01/10 00:57:19;;;;;;;;;;;;;;;0.94;100.00;101628.25;5112260;28;19976;-70
2021/01/10 00:59:46;;;;;;;;;;;;;;;0.97;100.00;101633.50;5111198;28;19931;-70
2021/01/10 01:02:12;;;;;;;;;;;;;;;0.99;100.00;101637.03;5111007;28;19958;-69
2021/01/10 01:04:38;;;;;;;;;;;;;;;0.97;100.00;101637.03;5111252;28;19966;-69
2021/01/10 01:07:04;;;;;;;;;;;;;;;1.00;100.00;101641.44;5110839;28;19927;-69
2021/01/10 01:09:33;;;;;;;;;;;;;;;0.98;100.00;101643.28;5111069;28;19924;-69
2021/01/10 01:11:59;;;;;;;;;;;;;;;0.99;100.00;101647.72;5111785;28;19953;-70
2021/01/10 01:14:26;;;;;;;;;;;;;;;0.98;100.00;101654.84;5112098;28;19978;-70
2021/01/10 01:16:52;;;;;;;;;;;;;;;0.93;100.00;101648.75;5112063;28;19924;-69
2021/01/10 01:19:18;;;;;;;;;;;;;;;0.93;100.00;101647.88;5112209;28;19924;-70
2021/01/10 01:21:44;;;;;;;;;;;;;;;0.94;100.00;101647.84;5112137;28;19971;-70
2021/01/10 01:24:10;;;;;;;;;;;;;;;0.91;100.00;101642.56;5112189;28;19928;-69
2021/01/10 01:26:36;;;;;;;;;;;;;;;0.92;100.00;101651.47;5111876;28;19928;-70
2021/01/10 01:29:01;;;;;;;;;;;;;;;0.96;100.00;101658.47;5111794;28;19924;-70
2021/01/10 01:31:29;;;;;;;;;;;;;;;0.98;100.00;101651.31;5111804;28;20381;-70
2021/01/10 01:33:56;;;;;;;;;;;;;;;0.99;100.00;101663.78;5112010;28;19924;-69
2021/01/10 01:36:24;;;;;;;;;;;;;;;0.97;100.00;101662.91;5111684;28;20354;-71
2021/01/10 01:38:50;;;;;;;;;;;;;;;0.99;100.00;101663.78;5111917;27;19924;-69
2021/01/10 01:41:16;;;;;;;;;;;;;;;1.00;100.00;101665.50;5111880;28;19955;-69
2021/01/10 01:43:42;;;;;;;;;;;;;;;0.99;100.00;101667.31;5112068;28;19971;-69
2021/01/10 01:46:09;;;;;;;;;;;;;;;1.00;100.00;101668.19;5111725;28;19924;-69
2021/01/10 01:48:35;;;;;;;;;;;;;;;0.99;100.00;101671.78;5111782;28;19950;-69
2021/01/10 01:51:03;;;;;;;;;;;;;;;0.99;100.00;101666.44;5111822;28;20027;-69
2021/01/10 01:53:29;;;;;;;;;;;;;;;0.98;100.00;101670.03;5110640;28;19973;-69
2021/01/10 01:55:56;;;;;;;;;;;;;;;0.99;100.00;101663.78;5111619;28;19968;-69
2021/01/10 01:58:23;;;;;;;;;;;;;;;1.00;100.00;101654.81;5111923;28;19953;-69
2021/01/10 02:00:48;;;;;;;;;;;;;;;1.02;100.00;101669.03;5111826;28;19977;-69
2021/01/10 02:03:18;;;;;;;;;;;;;;;1.02;100.00;101670.81;5111587;28;19963;-69
2021/01/10 02:05:45;;;;;;;;;;;;;;;1.02;100.00;101660.09;5111372;28;19966;-69
2021/01/10 02:08:12;;;;;;;;;;;;;;;0.98;100.00;101668.22;5111614;28;19967;-69
2021/01/10 02:10:41;;;;;;;;;;;;;;;0.99;100.00;101670.00;5110364;28;20027;-69
2021/01/10 02:13:11;;;;;;;;;;;;;;;0.98;100.00;101678.06;5113345;28;19928;-70
2021/01/10 02:15:37;;;;;;;;;;;;;;;0.99;100.00;101672.66;5115507;28;19978;-69
2021/01/10 02:18:05;;;;;;;;;;;;;;;0.99;100.00;101669.13;5115602;28;20021;-69
2021/01/10 02:20:32;;;;;;;;;;;;;;;0.97;100.00;101671.81;5115558;28;19924;-70
2021/01/10 02:23:00;;;;;;;;;;;;;;;0.97;100.00;101669.13;5115286;28;19931;-69
2021/01/10 02:25:27;;;;;;;;;;;;;;;0.98;100.00;101672.69;5115412;28;19955;-69
2021/01/10 02:27:53;;;;;;;;;;;;;;;1.00;100.00;101661.06;5115247;28;19966;-70
2021/01/10 02:30:20;;;;;;;;;;;;;;;1.03;100.00;101669.91;5115392;28;20060;-69
2021/01/10 02:32:48;;;;;;;;;;;;;;;1.01;100.00;101672.63;5115364;28;20036;-70
2021/01/10 02:35:15;;;;;;;;;;;;;;;1.00;100.00;101676.19;5115069;28;19923;-69
2021/01/10 02:37:45;;;;;;;;;;;;;;;1.02;100.00;101677.06;5115061;28;19924;-69
2021/01/10 02:40:13;;;;;;;;;;;;;;;1.02;100.00;101669.03;5115125;28;19927;-70
2021/01/10 02:42:44;;;;;;;;;;;;;;;1.03;100.00;101669.91;5114749;28;20282;-69
2021/01/10 02:45:12;;;;;;;;;;;;;;;1.06;100.00;101675.19;5115193;28;20400;-70
2021/01/10 02:47:38;;;;;;;;;;;;;;;1.03;100.00;101665.44;5113545;28;20076;-70
2021/01/10 02:50:04;;;;;;;;;;;;;;;1.03;100.00;101665.44;5115002;28;19989;-69
2021/01/10 02:52:30;;;;;;;;;;;;;;;1.04;100.00;101672.53;5114918;28;19966;-69
2021/01/10 02:54:57;;;;;;;;;;;;;;;1.03;100.00;101673.47;5114851;28;19930;-70
2021/01/10 02:57:27;;;;;;;;;;;;;;;1.04;100.00;101671.66;5114366;28;19950;-70
2021/01/10 02:59:54;;;;;;;;;;;;;;;1.02;100.00;101679.72;5114689;28;20565;-69
2021/01/10 03:02:21;;;;;;;;;;;;;;;1.02;100.00;101679.72;5114698;28;19924;-69
2021/01/10 03:04:48;;;;;;;;;;;;;;;1.02;100.00;101673.47;5114732;28;20118;-69
2021/01/10 03:07:14;;;;;;;;;;;;;;;1.02;100.00;101671.69;5113088;28;20335;-69
2021/01/10 03:09:40;;;;;;;;;;;;;;;1.00;100.00;101679.78;5114612;28;19930;-69
2021/01/10 03:12:16;;;;;;;;;;;;;;;1.01;100.00;101672.63;5114499;28;20015;-69
2021/01/10 03:14:43;;;;;;;;;;;;;;;0.97;100.00;101670.94;5114403;28;20346;-69
2021/01/10 03:17:12;;;;;;;;;;;;;;;0.91;100.00;101666.63;5114124;28;20014;-70
2021/01/10 03:19:38;;;;;;;;;;;;;;;0.89;100.00;101672.94;5114392;28;20019;-70
2021/01/10 03:22:04;;;;;;;;;;;;;;;0.86;100.00;101678.38;5114244;28;19931;-69
2021/01/10 03:24:30;;;;;;;;;;;;;;;0.83;100.00;101677.53;5113871;28;19928;-70
2021/01/10 03:26:55;;;;;;;;;;;;;;;0.83;100.00;101680.19;5114193;28;19923;-70
2021/01/10 03:29:21;;;;;;;;;;;;;;;0.86;100.00;101681.91;5114321;28;19927;-69
2021/01/10 03:31:47;;;;;;;;;;;;;;;0.87;100.00;101685.47;5112895;28;19927;-69
2021/01/10 03:34:14;;;;;;;;;;;;;;;0.87;100.00;101683.69;5113951;28;19931;-69
2021/01/10 03:36:39;;;;;;;;;;;;;;;0.89;100.00;101683.63;5113824;28;19927;-70
2021/01/10 03:39:05;;;;;;;;;;;;;;;0.92;100.00;101683.53;5113906;28;19973;-69
2021/01/10 03:41:31;;;;;;;;;;;;;;;0.94;100.00;101685.25;5114001;28;19931;-69
2021/01/10 03:43:57;;;;;;;;;;;;;;;0.96;100.00;101686.13;5113883;28;20282;-69
2021/01/10 03:46:22;;;;;;;;;;;;;;;0.92;100.00;101673.75;5113810;28;19930;-69
2021/01/10 03:48:48;;;;;;;;;;;;;;;0.94;100.00;101681.72;5113852;28;19931;-69
2021/01/10 03:51:15;;;;;;;;;;;;;;;0.93;100.00;101690.66;5113655;28;20373;-70
2021/01/10 03:53:40;;;;;;;;;;;;;;;0.93;100.00;101686.19;5113417;28;19924;-70
2021/01/10 03:56:06;;;;;;;;;;;;;;;0.93;100.00;101685.31;5113527;28;20356;-69
2021/01/10 03:58:32;;;;;;;;;;;;;;;0.95;100.00;101683.47;5113654;28;19924;-69
2021/01/10 04:00:58;;;;;;;;;;;;;;;0.99;100.00;101690.50;5113678;28;19973;-69
2021/01/10 04:03:23;;;;;;;;;;;;;;;1.00;100.00;101684.22;5113534;28;19924;-69
2021/01/10 04:05:49;;;;;;;;;;;;;;;1.00;100.00;101681.53;5113348;28;19928;-70
2021/01/10 04:08:16;;;;;;;;;;;;;;;0.97;100.00;101678.97;5112234;28;19931;-69
2021/01/10 04:10:42;;;;;;;;;;;;;;;0.96;100.00;101675.44;5111994;28;20360;-69
2021/01/10 04:13:07;;;;;;;;;;;;;;;0.95;100.00;101684.34;5113189;28;19935;-69
2021/01/10 04:15:33;;;;;;;;;;;;;;;0.90;100.00;101672.91;5113167;28;19946;-69
2021/01/10 04:17:59;;;;;;;;;;;;;;;0.91;100.00;101681.78;5113133;28;19976;-69
2021/01/10 04:20:25;;;;;;;;;;;;;;;0.95;100.00;101678.09;5113348;28;19930;-69
2021/01/10 04:22:50;;;;;;;;;;;;;;;0.96;100.00;101669.19;5113064;28;20327;-69
2021/01/10 04:25:18;;;;;;;;;;;;;;;0.94;100.00;101665.69;5112955;28;19930;-69
2021/01/10 04:27:44;;;;;;;;;;;;;;;0.94;100.00;101668.34;5112867;28;19978;-69
2021/01/10 04:30:10;;;;;;;;;;;;;;;0.89;100.00;101662.25;5112998;28;19924;-69
2021/01/10 04:32:36;;;;;;;;;;;;;;;0.86;100.00;101657.84;5112971;28;19927;-69
2021/01/10 04:35:02;;;;;;;;;;;;;;;0.85;100.00;101660.56;5112046;28;19924;-69
2021/01/10 04:37:28;;;;;;;;;;;;;;;0.80;100.00;101656.22;5112721;28;19974;-70
2021/01/10 04:39:53;;;;;;;;;;;;;;;0.81;100.00;101659.75;5112873;28;19927;-69
2021/01/10 04:42:21;;;;;;;;;;;;;;;0.78;100.00;101660.72;5112319;28;19928;-70
2021/01/10 04:44:47;;;;;;;;;;;;;;;0.77;100.00;101658.09;5112755;28;19923;-69
2021/01/10 04:47:14;;;;;;;;;;;;;;;0.72;100.00;101655.56;5112529;28;19930;-69
2021/01/10 04:49:40;;;;;;;;;;;;;;;0.71;100.00;101652.88;5112496;28;20288;-70
2021/01/10 04:52:06;;;;;;;;;;;;;;;0.69;100.00;101660.94;5112574;28;19924;-69
2021/01/10 04:54:35;;;;;;;;;;;;;;;0.68;100.00;101661.84;5112630;28;19971;-69
2021/01/10 04:57:03;;;;;;;;;;;;;;;0.64;100.00;101653.06;5112423;28;20440;-70
2021/01/10 04:59:30;;;;;;;;;;;;;;;0.63;100.00;101661.13;5112197;28;20467;-69
2021/01/10 05:01:59;;;;;;;;;;;;;;;0.59;100.00;101648.72;5112325;28;20030;-69
2021/01/10 05:04:26;;;;;;;;;;;;;;;0.54;100.00;101658.69;5112427;28;20359;-70
2021/01/10 05:06:52;;;;;;;;;;;;;;;0.49;100.00;101650.75;5112099;28;20503;-69
2021/01/10 05:09:22;;;;;;;;;;;;;;;0.46;100.00;101653.50;5112404;28;20311;-69
2021/01/10 05:11:48;;;;;;;;;;;;;;;0.43;100.00;101650.94;5112230;28;20030;-69
2021/01/10 05:14:14;;;;;;;;;;;;;;;0.37;100.00;101649.25;5112284;28;19928;-69
2021/01/10 05:16:42;;;;;;;;;;;;;;;0.35;100.00;101655.53;5111938;28;19923;-69
2021/01/10 05:19:07;;;;;;;;;;;;;;;0.31;100.00;101660.97;5110745;28;20022;-70
2021/01/10 05:21:33;;;;;;;;;;;;;;;0.28;100.00;101657.47;5112077;28;20401;-69
2021/01/10 05:23:59;;;;;;;;;;;;;;;0.25;100.00;101660.22;5112058;28;19928;-69
2021/01/10 05:26:30;;;;;;;;;;;;;;;0.21;100.00;101659.41;5111797;28;19931;-69
2021/01/10 05:28:57;;;;;;;;;;;;;;;0.17;100.00;101657.72;5111923;28;19972;-70
2021/01/10 05:31:33;;;;;;;;;;;;;;;0.12;100.00;101659.63;5111937;28;19924;-69
2021/01/10 05:33:59;;;;;;;;;;;;;;;0.07;100.00;101662.41;5111931;28;19946;-69
2021/01/10 05:36:26;;;;;;;;;;;;;;;0.04;100.00;101665.16;5110365;28;19959;-69
2021/01/10 05:38:52;;;;;;;;;;;;;;;0.02;100.00;101664.31;5111734;28;19946;-69
2021/01/10 05:41:18;;;;;;;;;;;;;;;0.00;100.00;101660.81;5110479;28;20535;-69
2021/01/10 05:43:57;;;;;;;;;;;;;;;-0.03;100.00;101661.75;5100418;28;19930;-69
2021/01/10 05:46:23;;;;;;;;;;;;;;;-0.08;100.00;101658.31;5096181;28;19931;-69
2021/01/10 05:48:49;;;;;;;;;;;;;;;-0.10;100.00;101659.25;5099848;28;19932;-69
2021/01/10 05:51:17;;;;;;;;;;;;;;;-0.15;100.00;101656.66;5118207;28;19924;-69
2021/01/10 05:53:43;;;;;;;;;;;;;;;-0.19;100.00;101650.53;5117910;28;20024;-69
2021/01/10 05:56:09;;;;;;;;;;;;;;;-0.23;100.00;101658.63;5097775;28;19924;-68
2021/01/10 05:58:35;;;;;;;;;;;;;;;-0.31;100.00;101661.44;5098060;28;19963;-68
2021/01/10 06:01:11;;;;;;;;;;;;;;;-0.39;100.00;101658.06;5109014;28;20023;-68
2021/01/10 06:03:37;;;;;;;;;;;;;;;-0.48;100.00;101660.91;5104030;28;19923;-68
2021/01/10 06:06:04;;;;;;;;;;;;;;;-0.60;100.00;101662.94;5118212;28;19924;-68
2021/01/10 06:08:32;;;;;;;;;;;;;;;-0.71;100.00;101664.91;5109850;28;19930;-69
2021/01/10 06:11:17;;;;;;;;;;;;;;;-0.87;100.00;101659.91;5097828;28;19928;-69
2021/01/10 06:13:47;;;;;;;;;;;;;;;-1.01;100.00;101673.47;5107331;28;20026;-68
2021/01/10 06:16:13;;;;;;;;;;;;;;;-1.13;100.00;101670.16;5102322;28;19935;-68
2021/01/10 06:18:42;;;;;;;;;;;;;;;-1.23;100.00;101672.97;5104619;28;20031;-68
2021/01/10 06:21:16;;;;;;;;;;;;;;;-1.30;100.00;101673.97;5117784;27;20031;-68
2021/01/10 06:23:45;;;;;;;;;;;;;;;-1.40;100.00;101678.56;5107613;27;20026;-69
2021/01/10 06:26:11;;;;;;;;;;;;;;;-1.45;100.00;101690.22;5097512;28;19928;-69
2021/01/10 06:28:37;;;;;;;;;;;;;;;-1.58;100.00;101684.19;5105587;28;20046;-68
2021/01/10 06:31:04;;;;;;;;;;;;;;;-1.72;100.00;101684.41;5118002;27;20389;-68
2021/01/10 06:33:30;;;;;;;;;;;;;;;-1.87;100.00;101688.13;5105814;28;20358;-68
2021/01/10 06:36:01;;;;;;;;;;;;;;;-1.98;100.00;101687.44;5097503;28;19955;-68
2021/01/10 06:38:32;;;;;;;;;;;;;;;-2.11;100.00;101686.69;5107580;28;20278;-68
2021/01/10 06:41:11;;;;;;;;;;;;;;;-2.17;100.00;101685.00;5118238;28;19930;-68
2021/01/10 06:43:38;;;;;;;;;;;;;;;-2.22;100.00;101690.41;5105836;28;20152;-68
2021/01/10 06:46:06;;;;;;;;;;;;;;;-2.25;100.00;101684.22;5103464;28;20014;-68
2021/01/10 06:48:32;;;;;;;;;;;;;;;-2.30;100.00;101689.59;5112030;28;20124;-69
2021/01/10 06:51:00;;;;;;;;;;;;;;;-2.32;100.00;101695.84;5113769;28;19931;-68
2021/01/10 06:53:26;;;;;;;;;;;;;;;-2.40;100.00;101687.97;5117674;27;19970;-69
2021/01/10 06:55:52;;;;;;;;;;;;;;;-2.45;100.00;101689.78;5115404;28;19924;-68
2021/01/10 06:58:19;;;;;;;;;;;;;;;-2.47;100.00;101696.91;5110112;28;19932;-69
2021/01/10 07:00:51;;;;;;;;;;;;;;;-2.46;100.00;101696.00;5094474;28;20515;-68
2021/01/10 07:03:16;;;;;;;;;;;;;;;-2.32;100.00;101696.72;5103887;28;19934;-68
2021/01/10 07:05:58;;;;;;;;;;;;;;;-2.31;100.00;101697.59;5113100;28;19924;-68
2021/01/10 07:08:31;;;;;;;;;;;;;;;-2.18;100.00;101704.53;5103586;28;19924;-68
2021/01/10 07:10:57;;;;;;;;;;;;;;;-2.14;100.00;101700.91;5094119;28;20465;-69
2021/01/10 07:13:24;;;;;;;;;;;;;;;-2.19;100.00;101703.66;5103499;28;20034;-68
2021/01/10 07:16:16;;;;;;;;;;;;;;;-2.29;100.00;101702.00;5114334;28;19930;-69
2021/01/10 07:18:48;;;;;;;;;;;;;;;-2.34;100.00;101705.63;5097234;28;20026;-69
2021/01/10 07:21:28;;;;;;;;;;;;;;;-2.36;100.00;101721.59;5093955;28;20069;-68
2021/01/10 07:23:53;;;;;;;;;;;;;;;-2.27;100.00;101721.50;5111968;28;19928;-69
2021/01/10 07:26:34;;;;;;;;;;;;;;;-2.14;100.00;101721.34;5114110;28;19989;-68
2021/01/10 07:29:01;;;;;;;;;;;;;;;-1.95;100.00;101716.66;5094448;28;20027;-69
2021/01/10 07:31:27;;;;;;;;;;;;;;;-1.83;100.00;101721.84;5093495;28;20373;-68
2021/01/10 07:34:11;;;;;;;;;;;;;;;-1.74;100.00;101734.13;5110864;28;19981;-69
2021/01/10 07:36:45;;;;;;;;;;;;;;;-1.65;100.00;101727.78;5113802;28;20270;-68
2021/01/10 07:39:11;;;;;;;;;;;;;;;-1.55;100.00;101734.72;5093953;28;19927;-69
2021/01/10 07:41:37;;;;;;;;;;;;;;;-1.46;100.00;101741.72;5092432;28;19931;-68
2021/01/10 07:44:04;;;;;;;;;;;;;;;-1.41;100.00;101740.72;5102128;28;19924;-69
2021/01/10 07:47:00;;;;;;;;;;;;;;;-1.36;100.00;101738.88;5099266;28;19924;-67
2021/01/10 07:49:27;;;;;;;;;;;;;;;-1.32;100.00;101739.72;5099198;28;20400;-67
2021/01/10 07:51:53;;;;;;;;;;;;;;;-1.30;100.00;101747.69;5092597;28;19967;-67
2021/01/10 07:54:44;;;;;;;;;;;;;;;-1.29;100.00;101744.13;5093259;28;19924;-67
2021/01/10 07:57:26;;;;;;;;;;;;;;;-1.25;100.00;101746.72;5092832;28;20411;-67
2021/01/10 08:00:07;;;;;;;;;;;;;;;-1.23;100.00;101747.56;5101362;28;20037;-67
2021/01/10 08:02:51;;;;;;;;;;;;;;;-1.17;100.00;101748.38;5093431;28;19963;-67
2021/01/10 08:05:17;;;;;;;;;;;;;;;-1.15;100.00;101751.88;5093105;28;19950;-67
2021/01/10 08:07:50;;;;;;;;;;;;;;;-1.13;100.00;101756.28;5112435;28;19934;-66
2021/01/10 08:10:16;;;;;;;;;;;;;;;-1.10;100.00;101752.69;5110244;28;20022;-66
2021/01/10 08:12:41;;;;;;;;;;;;;;;-1.09;100.00;101747.34;5113302;28;19959;-66
2021/01/10 08:15:09;;;;;;;;;;;;;;;-1.04;100.00;101752.63;5098192;28;20394;-66
2021/01/10 08:17:36;;;;;;;;;;;;;;;-1.00;100.00;101757.00;5092702;28;19974;-66
2021/01/10 08:20:03;;;;;;;;;;;;;;;-0.95;100.00;101763.13;5093741;28;19924;-66
2021/01/10 08:22:29;;;;;;;;;;;;;;;-0.90;100.00;101761.22;5094990;28;19928;-66
2021/01/10 08:24:54;;;;;;;;;;;;;;;-0.86;100.00;101759.41;5111235;28;19937;-66
2021/01/10 08:27:20;;;;;;;;;;;;;;;-0.80;100.00;101764.66;5105379;28;19924;-67
2021/01/10 08:29:46;;;;;;;;;;;;;;;-0.70;100.00;101762.69;5090207;28;19924;-67
2021/01/10 08:32:13;;;;;;;;;;;;;;;-0.62;100.00;101767.88;5104517;28;20010;-66
2021/01/10 08:34:44;;;;;;;;;;;;;;;-0.56;100.00;101766.00;5107711;28;19927;-67
2021/01/10 08:37:11;;;;;;;;;;;;;;;-0.48;100.00;101773.88;5112585;28;19923;-67
2021/01/10 08:39:37;;;;;;;;;;;;;;;-0.42;100.00;101767.53;5099335;28;19947;-67
2021/01/10 08:42:02;;;;;;;;;;;;;;;-0.37;100.00;101763.84;5092315;28;20377;-66
2021/01/10 08:44:28;;;;;;;;;;;;;;;-0.36;100.00;101767.38;5106183;28;19928;-68
2021/01/10 08:46:54;;;;;;;;;;;;;;;-0.38;100.00;101771.88;5103997;28;19959;-66
2021/01/10 08:49:23;;;;;;;;;;;;;;;-0.35;100.00;101767.38;5093334;28;20022;-66
2021/01/10 08:51:48;;;;;;;;;;;;;;;-0.35;100.00;101766.47;5111021;28;19928;-66
2021/01/10 08:54:15;;;;;;;;;;;;;;;-0.36;100.00;101770.06;5112441;28;20414;-66
2021/01/10 08:56:41;;;;;;;;;;;;;;;-0.39;100.00;101755.00;5112454;28;19923;-66
2021/01/10 08:59:08;;;;;;;;;;;;;;;-0.35;100.00;101761.16;5112209;28;20038;-66
2021/01/10 09:01:34;;;;;;;;;;;;;;;-0.36;100.00;101762.94;5112376;28;20254;-66
2021/01/10 09:04:01;;;;;;;;;;;;;;;-0.37;100.00;101768.31;5112373;28;20353;-66
2021/01/10 09:06:44;;;;;;;;;;;;;;;-0.41;100.00;101761.28;5111882;28;20010;-67
2021/01/10 09:09:15;;;;;;;;;;;;;;;-0.40;100.00;101747.91;5112154;28;19974;-66
2021/01/10 09:11:46;;;;;;;;;;;;;;;-0.38;100.00;101742.53;5109971;28;19958;-67
2021/01/10 09:14:12;;;;;;;;;;;;;;;-0.47;100.00;101740.03;5110189;28;20495;-66
2021/01/10 09:16:39;;;;;;;;;;;;;;;-0.49;100.00;101747.19;5111725;28;19962;-66
2021/01/10 09:19:07;;;;;;;;;;;;;;;-0.53;100.00;101747.25;5111953;28;19955;-66
2021/01/10 09:21:33;;;;;;;;;;;;;;;-0.52;100.00;101742.81;5109368;28;19951;-66
2021/01/10 09:24:00;;;;;;;;;;;;;;;-0.55;100.00;101748.19;5097744;28;19928;-66
2021/01/10 09:26:27;;;;;;;;;;;;;;;-0.47;100.00;101750.72;5098157;28;19952;-66
2021/01/10 09:28:53;;;;;;;;;;;;;;;-0.47;100.00;101748.91;5100292;28;19930;-66
2021/01/10 09:31:19;;;;;;;;;;;;;;;-0.39;100.00;101755.00;5101541;28;19924;-66
2021/01/10 09:33:53;;;;;;;;;;;;;;;-0.34;100.00;101757.56;5111705;28;20037;-66
2021/01/10 09:36:19;;;;;;;;;;;;;;;-0.38;100.00;101748.75;5111562;28;20423;-66
2021/01/10 09:38:53;;;;;;;;;;;;;;;-0.42;100.00;101749.72;5111761;28;19924;-66
2021/01/10 09:41:20;;;;;;;;;;;;;;;-0.51;100.00;101757.88;5111562;28;19942;-66
2021/01/10 09:43:47;;;;;;;;;;;;;;;-0.56;100.00;101758.00;5111463;28;19951;-66
2021/01/10 09:46:27;;;;;;;;;;;;;;;-0.54;100.00;101757.97;5111222;28;19977;-66
2021/01/10 09:48:53;;;;;;;;;;;;;;;-0.49;100.00;101757.84;5111759;28;19986;-66
2021/01/10 09:51:19;;;;;;;;;;;;;;;-0.46;100.00;101747.16;5111507;28;20355;-66
2021/01/10 09:53:47;;;;;;;;;;;;;;;-0.47;100.00;101750.72;5111693;28;20007;-66
2021/01/10 09:56:14;;;;;;;;;;;;;;;-0.46;100.00;101752.47;5111433;28;20014;-66
2021/01/10 09:58:40;;;;;;;;;;;;;;;-0.47;100.00;101748.06;5111735;28;19924;-66
2021/01/10 10:01:08;;;;;;;;;;;;;;;-0.44;100.00;101742.66;5111496;28;19928;-66
2021/01/10 10:03:34;;;;;;;;;;;;;;;-0.37;100.00;101747.84;5111377;28;19923;-67
2021/01/10 10:06:00;;;;;;;;;;;;;;;-0.29;100.00;101746.84;5111385;28;19992;-66
2021/01/10 10:08:26;;;;;;;;;;;;;;;-0.20;100.00;101750.19;5111604;28;20389;-66
2021/01/10 10:10:52;;;;;;;;;;;;;;;-0.20;100.00;101750.19;5111350;28;19970;-66
2021/01/10 10:13:23;;;;;;;;;;;;;;;-0.36;100.00;101749.59;5111144;28;19966;-66
2021/01/10 10:15:53;;;;;;;;;;;;;;;-0.31;100.00;101745.97;5110063;28;20279;-66
2021/01/10 10:18:21;;;;;;;;;;;;;;;-0.20;100.00;101743.94;5111237;28;19924;-66
2021/01/10 10:20:47;;;;;;;;;;;;;;;-0.13;100.00;101744.72;5111347;28;20479;-66
2021/01/10 10:23:14;;;;;;;;;;;;;;;-0.05;100.00;101750.78;5111319;28;19923;-66
2021/01/10 10:25:40;;;;;;;;;;;;;;;0.02;100.00;101752.41;5111160;28;19924;-67
2021/01/10 10:28:06;;;;;;;;;;;;;;;0.13;100.00;101747.75;5111398;28;20347;-67
2021/01/10 10:30:32;;;;;;;;;;;;;;;0.09;100.00;101748.69;5111210;28;19978;-66
2021/01/10 10:32:59;;;;;;;;;;;;;;;0.13;100.00;101749.50;5111325;28;19923;-66
2021/01/10 10:35:24;;;;;;;;;;;;;;;0.16;100.00;101742.31;5114899;28;19930;-66
2021/01/10 10:37:51;;;;;;;;;;;;;;;0.36;100.00;101745.47;5114629;28;20304;-66
2021/01/10 10:40:17;;;;;;;;;;;;;;;0.42;100.00;101742.66;5114845;28;19928;-66
2021/01/10 10:42:43;;;;;;;;;;;;;;;0.45;100.00;101737.25;5114903;28;20334;-66
2021/01/10 10:45:09;;;;;;;;;;;;;;;0.48;100.00;101735.38;5114875;28;19949;-67
2021/01/10 10:47:35;;;;;;;;;;;;;;;0.57;100.00;101733.41;5114834;28;20014;-66
2021/01/10 10:50:02;;;;;;;;;;;;;;;0.68;100.00;101727.81;5114804;28;19985;-66
2021/01/10 10:52:28;;;;;;;;;;;;;;;0.48;100.00;101719.34;5114535;28;19949;-66
2021/01/10 10:54:53;;;;;;;;;;;;;;;1.17;100.00;101708.72;5114777;28;19923;-66
2021/01/10 10:57:19;;;;;;;;;;;;;;;1.87;100.00;101703.25;5114486;28;19924;-66
2021/01/10 10:59:45;;;;;;;;;;;;;;;2.21;100.00;101688.88;5114799;28;19939;-67
2021/01/10 11:02:11;;;;;;;;;;;;;;;2.53;100.00;101692.34;5114540;28;19927;-67
2021/01/10 11:04:38;;;;;;;;;;;;;;;2.85;100.00;101684.09;5114666;28;19969;-68
2021/01/10 11:07:05;;;;;;;;;;;;;;;2.94;100.00;101680.25;5111249;28;20065;-68
2021/01/10 11:09:31;;;;;;;;;;;;;;;2.55;100.00;101677.94;5104627;28;20443;-67
2021/01/10 11:11:57;;;;;;;;;;;;;;;2.04;100.00;101687.56;5112720;28;19966;-70
2021/01/10 11:14:22;;;;;;;;;;;;;;;1.73;100.00;101688.47;5108238;28;19977;-70
2021/01/10 11:16:50;;;;;;;;;;;;;;;1.77;100.00;101683.91;5102825;28;19928;-70
2021/01/10 11:19:16;;;;;;;;;;;;;;;1.63;100.00;101676.28;5096833;28;20323;-70
2021/01/10 11:21:43;;;;;;;;;;;;;;;1.56;100.00;101685.41;5109374;28;20034;-71
2021/01/10 11:24:10;;;;;;;;;;;;;;;1.31;100.00;101681.63;5111666;28;20577;-70
2021/01/10 11:26:37;;;;;;;;;;;;;;;1.31;100.00;101675.38;5092990;28;20381;-70
2021/01/10 11:29:04;;;;;;;;;;;;;;;1.31;100.00;101675.38;5092839;28;20022;-70
2021/01/10 11:31:31;;;;;;;;;;;;;;;1.34;100.00;101668.16;5112838;28;19949;-70
2021/01/10 11:33:57;;;;;;;;;;;;;;;1.47;100.00;101674.06;5112824;28;19929;-70
2021/01/10 11:36:22;;;;;;;;;;;;;;;1.66;100.00;101665.50;5104898;28;19963;-70
2021/01/10 11:38:49;;;;;;;;;;;;;;;1.84;100.00;101670.31;5107793;28;19923;-71
2021/01/10 11:41:16;;;;;;;;;;;;;;;1.90;100.00;101663.00;5105586;28;19928;-70
2021/01/10 11:43:42;;;;;;;;;;;;;;;1.87;100.00;101663.09;5101598;28;19932;-70
2021/01/10 11:46:08;;;;;;;;;;;;;;;1.85;100.00;101660.47;5102822;28;20395;-70
2021/01/10 11:48:35;;;;;;;;;;;;;;;1.89;100.00;101653.22;5103959;28;20019;-70
2021/01/10 11:51:01;;;;;;;;;;;;;;;1.97;100.00;101659.22;5100958;28;19946;-69
2021/01/10 11:53:27;;;;;;;;;;;;;;;2.34;100.00;101655.41;5101507;28;19938;-69
2021/01/10 11:55:52;;;;;;;;;;;;;;;2.59;100.00;101651.91;5102957;28;19924;-70
2021/01/10 11:58:19;;;;;;;;;;;;;;;2.65;100.00;101641.88;5101013;28;19924;-69
2021/01/10 12:00:48;;;;;;;;;;;;;;;2.19;100.00;101643.34;5104187;28;20027;-70
2021/01/10 12:03:14;;;;;;;;;;;;;;;2.05;100.00;101645.59;5109560;28;20014;-70
2021/01/10 12:05:40;;;;;;;;;;;;;;;1.90;100.00;101645.16;5106392;28;19924;-68
2021/01/10 12:08:06;;;;;;;;;;;;;;;1.81;100.00;101637.38;5105739;28;19927;-69
2021/01/10 12:10:32;;;;;;;;;;;;;;;1.88;100.00;101630.91;5100476;28;20015;-69
2021/01/10 12:12:58;;;;;;;;;;;;;;;1.93;100.00;101634.34;5112476;28;19923;-69
2021/01/10 12:15:25;;;;;;;;;;;;;;;1.99;100.00;101635.94;5110689;28;19924;-69
2021/01/10 12:17:50;;;;;;;;;;;;;;;1.96;100.00;101633.38;5112043;28;20373;-69
2021/01/10 12:20:16;;;;;;;;;;;;;;;1.86;100.00;101631.88;5106290;28;19977;-69
2021/01/10 12:22:42;;;;;;;;;;;;;;;1.95;100.00;101623.56;5105033;28;20033;-69
2021/01/10 12:25:09;;;;;;;;;;;;;;;1.79;100.00;101621.38;5107226;28;19924;-68
2021/01/10 12:27:34;;;;;;;;;;;;;;;1.65;100.00;101621.78;5097843;28;19983;-68
2021/01/10 12:30:00;;;;;;;;;;;;;;;1.53;100.00;101613.25;5108998;28;19932;-70
2021/01/10 12:32:32;;;;;;;;;;;;;;;1.34;100.00;101611.97;5112888;28;19930;-68
2021/01/10 12:34:57;;;;;;;;;;;;;;;1.31;100.00;101609.38;5093664;28;20412;-68